createdAt,value
2023-10-08T00:00:25.744Z,10.97
2023-10-08T00:03:30.903Z,11.10
2023-10-08T00:06:34.753Z,7.72
2023-10-08T00:09:38.405Z,11.02
2023-10-08T00:12:41.803Z,8.80
2023-10-08T00:15:55.658Z,11.30
2023-10-08T00:19:03.725Z,9.15
2023-10-08T00:22:08.983Z,7.57
2023-10-08T00:25:13.195Z,6.70
2023-10-08T00:28:18.483Z,7.83
2023-10-08T00:31:25.174Z,11.63
2023-10-08T00:34:28.732Z,8.85
2023-10-08T00:37:32.228Z,8.25
2023-10-08T00:40:45.545Z,7.28
2023-10-08T00:43:50.269Z,9.30
2023-10-08T00:46:54.622Z,9.50
2023-10-08T00:50:10.813Z,10.30
2023-10-08T00:53:22.765Z,8.23
2023-10-08T00:56:50.667Z,7.57
2023-10-08T00:59:55.055Z,10.03
2023-10-08T01:03:02.372Z,10.03
2023-10-08T01:06:11.010Z,7.57
2023-10-08T01:09:22.605Z,8.10
2023-10-08T01:12:35.022Z,7.93
2023-10-08T01:15:38.769Z,9.17
2023-10-08T01:18:47.632Z,9.97
2023-10-08T01:21:51.914Z,9.43
2023-10-08T01:24:55.318Z,7.72
2023-10-08T01:28:17.768Z,7.45
2023-10-08T01:31:21.229Z,9.90
2023-10-08T01:34:31.893Z,13.33
2023-10-08T01:37:35.356Z,6.82
2023-10-08T01:40:39.814Z,9.13
2023-10-08T01:43:43.152Z,8.45
2023-10-08T01:46:47.372Z,9.47
2023-10-08T01:49:51.257Z,8.97
2023-10-08T01:52:54.940Z,6.88
2023-10-08T01:55:59.456Z,7.35
2023-10-08T01:59:03.377Z,7.85
2023-10-08T02:02:08.187Z,8.77
2023-10-08T02:05:15.976Z,8.37
2023-10-08T02:08:19.493Z,8.20
2023-10-08T02:11:22.966Z,8.15
2023-10-08T02:14:26.512Z,9.82
2023-10-08T02:17:30.023Z,8.30
2023-10-08T02:20:34.107Z,9.33
2023-10-08T02:23:38.561Z,8.30
2023-10-08T02:26:43.603Z,9.40
2023-10-08T02:29:47.258Z,9.60
2023-10-08T02:32:50.977Z,7.93
2023-10-08T02:35:54.901Z,8.47
2023-10-08T02:38:58.964Z,8.30
2023-10-08T02:42:02.641Z,8.98
2023-10-08T02:45:06.870Z,8.98
2023-10-08T02:48:13.296Z,10.20
2023-10-08T02:51:17.090Z,12.00
2023-10-08T02:54:33.935Z,7.15
2023-10-08T02:57:37.397Z,8.02
2023-10-08T03:00:42.064Z,7.47
2023-10-08T03:03:48.108Z,9.07
2023-10-08T03:06:52.194Z,9.40
2023-10-08T03:10:07.960Z,7.47
2023-10-08T03:13:14.285Z,8.32
2023-10-08T03:16:23.056Z,8.63
2023-10-08T03:19:26.493Z,10.27
2023-10-08T03:22:35.442Z,6.73
2023-10-08T03:25:42.895Z,7.03
2023-10-08T03:28:46.752Z,9.20
2023-10-08T03:31:50.166Z,8.48
2023-10-08T03:35:00.348Z,6.90
2023-10-08T03:38:20.317Z,6.77
2023-10-08T03:41:31.632Z,8.18
2023-10-08T03:44:38.781Z,7.35
2023-10-08T03:47:48.071Z,6.97
2023-10-08T03:51:07.704Z,8.50
2023-10-08T03:54:11.161Z,8.50
2023-10-08T03:57:19.347Z,8.23
2023-10-08T04:00:30.191Z,9.45
2023-10-08T04:03:56.209Z,8.48
2023-10-08T04:07:19.567Z,7.97
2023-10-08T04:10:41.189Z,7.73
2023-10-08T04:13:49.851Z,8.15
2023-10-08T04:16:53.774Z,9.48
2023-10-08T04:19:59.503Z,8.18
2023-10-08T04:23:07.309Z,6.90
2023-10-08T04:26:10.706Z,8.03
2023-10-08T04:29:17.836Z,7.75
2023-10-08T04:32:26.610Z,10.93
2023-10-08T04:35:30.231Z,9.10
2023-10-08T04:38:40.962Z,8.77
2023-10-08T04:41:44.931Z,8.13
2023-10-08T04:44:48.468Z,9.57
2023-10-08T04:47:51.921Z,7.00
2023-10-08T04:51:01.452Z,9.82
2023-10-08T04:54:06.670Z,8.80
2023-10-08T04:57:16.391Z,10.40
2023-10-08T05:00:39.993Z,7.00
2023-10-08T05:03:55.961Z,6.82
2023-10-08T05:07:05.344Z,7.88
2023-10-08T05:10:09.736Z,9.23
2023-10-08T05:13:13.136Z,8.50
2023-10-08T05:16:38.248Z,9.80
2023-10-08T05:19:42.746Z,7.82
2023-10-08T05:22:46.301Z,6.07
2023-10-08T05:26:20.305Z,7.73
2023-10-08T05:29:42.193Z,8.67
2023-10-08T05:33:15.400Z,10.80
2023-10-08T05:36:29.656Z,6.60
2023-10-08T05:39:55.747Z,8.88
2023-10-08T05:43:14.651Z,6.90
2023-10-08T05:46:24.341Z,8.67
2023-10-08T05:49:40.109Z,11.40
2023-10-08T05:52:59.955Z,6.15
2023-10-08T05:56:18.077Z,7.38
2023-10-08T05:59:28.640Z,7.53
2023-10-08T06:02:39.395Z,8.30
2023-10-08T06:05:48.820Z,6.63
2023-10-08T06:09:10.203Z,9.52
2023-10-08T06:12:21.049Z,6.78
2023-10-08T06:15:39.084Z,7.83
2023-10-08T06:18:42.554Z,7.80
2023-10-08T06:21:46.347Z,8.75
2023-10-08T06:24:49.908Z,9.43
2023-10-08T06:28:04.199Z,6.47
2023-10-08T06:31:13.070Z,7.23
2023-10-08T06:34:17.659Z,8.53
2023-10-08T06:37:20.998Z,9.05
2023-10-08T06:40:42.043Z,12.55
2023-10-08T06:44:15.816Z,11.48
2023-10-08T06:47:20.381Z,8.63
2023-10-08T06:50:23.959Z,8.97
2023-10-08T06:53:31.098Z,13.07
2023-10-08T06:56:34.691Z,10.02
2023-10-08T06:59:43.991Z,8.93
2023-10-08T07:02:49.105Z,7.97
2023-10-08T07:05:59.644Z,7.67
2023-10-08T07:09:07.490Z,9.75
2023-10-08T07:12:15.354Z,12.65
2023-10-08T07:15:25.037Z,10.55
2023-10-08T07:18:28.729Z,12.30
2023-10-08T07:21:46.253Z,12.00
2023-10-08T07:24:53.367Z,9.27
2023-10-08T07:27:57.014Z,10.55
2023-10-08T07:31:00.808Z,11.48
2023-10-08T07:34:16.966Z,14.10
2023-10-08T07:37:20.653Z,10.07
2023-10-08T07:40:29.150Z,10.23
2023-10-08T07:43:33.609Z,8.00
2023-10-08T07:46:37.049Z,10.70
2023-10-08T07:49:40.938Z,7.03
2023-10-08T07:52:46.362Z,13.57
2023-10-08T07:55:50.200Z,12.73
2023-10-08T07:58:57.155Z,9.43
2023-10-08T08:02:01.514Z,16.10
2023-10-08T08:05:05.233Z,14.63
2023-10-08T08:08:08.734Z,9.83
2023-10-08T08:11:18.632Z,16.70
2023-10-08T08:14:26.126Z,8.50
2023-10-08T08:17:32.377Z,7.45
2023-10-08T08:20:45.090Z,11.53
2023-10-08T08:23:49.624Z,8.87
2023-10-08T08:27:13.182Z,9.25
2023-10-08T08:30:19.802Z,7.30
2023-10-08T08:33:24.410Z,6.13
2023-10-08T08:36:34.233Z,7.50
2023-10-08T08:39:37.893Z,5.10
2023-10-08T08:42:41.944Z,5.00
2023-10-08T08:45:45.646Z,4.40
2023-10-08T08:48:51.224Z,9.13
2023-10-08T08:51:56.906Z,2.30
2023-10-08T08:55:01.663Z,1.63
2023-10-08T08:58:06.739Z,1.92
2023-10-08T09:01:14.774Z,0.90
2023-10-08T09:04:29.444Z,2.65
2023-10-08T09:07:32.873Z,0.90
2023-10-08T09:10:38.888Z,2.10
2023-10-08T09:13:43.108Z,0.60
2023-10-08T09:16:48.087Z,1.92
2023-10-08T09:19:55.260Z,2.10
2023-10-08T09:23:13.555Z,1.60
2023-10-08T09:26:19.905Z,1.40
2023-10-08T09:29:28.146Z,1.42
2023-10-08T09:32:32.512Z,2.20
2023-10-08T09:35:37.618Z,3.15
2023-10-08T09:38:41.566Z,5.20
2023-10-08T09:41:48.264Z,3.70
2023-10-08T09:44:51.830Z,5.82
2023-10-08T09:47:57.002Z,4.20
2023-10-08T09:51:01.958Z,0.93
2023-10-08T09:54:23.419Z,0.90
2023-10-08T09:57:28.196Z,0.70
2023-10-08T10:00:33.398Z,1.38
2023-10-08T10:03:37.518Z,1.65
2023-10-08T10:06:45.546Z,1.85
2023-10-08T10:09:52.361Z,1.83
2023-10-08T10:13:00.838Z,3.57
2023-10-08T10:16:08.818Z,1.50
2023-10-08T10:19:19.862Z,5.75
2023-10-08T10:22:35.337Z,2.53
2023-10-08T10:25:44.101Z,2.87
2023-10-08T10:29:07.430Z,3.60
2023-10-08T10:32:16.517Z,2.85
2023-10-08T10:35:21.144Z,1.40
2023-10-08T10:38:27.958Z,2.35
2023-10-08T10:41:31.406Z,1.73
2023-10-08T10:44:38.591Z,3.57
2023-10-08T10:47:45.871Z,2.25
2023-10-08T10:51:06.520Z,2.25
2023-10-08T10:54:20.989Z,2.45
2023-10-08T10:57:28.013Z,2.23
2023-10-08T11:00:35.000Z,1.77
2023-10-08T11:03:38.580Z,3.00
2023-10-08T11:06:42.297Z,2.75
2023-10-08T11:09:45.986Z,2.22
2023-10-08T11:12:54.560Z,3.37
2023-10-08T11:16:00.264Z,3.30
2023-10-08T11:19:08.058Z,3.45
2023-10-08T11:22:18.045Z,3.20
2023-10-08T11:25:32.079Z,2.47
2023-10-08T11:28:43.216Z,2.53
2023-10-08T11:31:46.779Z,2.87
2023-10-08T11:34:51.275Z,3.28
2023-10-08T11:38:00.014Z,5.15
2023-10-08T11:41:21.988Z,12.63
2023-10-08T11:44:31.701Z,4.00
2023-10-08T11:47:37.123Z,2.73
2023-10-08T11:50:42.133Z,3.30
2023-10-08T11:53:46.286Z,2.28
2023-10-08T11:56:49.734Z,2.92
2023-10-08T11:59:56.405Z,3.10
2023-10-08T12:03:03.180Z,2.00
2023-10-08T12:06:07.324Z,1.50
2023-10-08T12:09:14.073Z,1.20
2023-10-08T12:12:24.255Z,2.45
2023-10-08T12:15:35.604Z,4.40
2023-10-08T12:18:44.016Z,2.37
2023-10-08T12:21:48.887Z,1.98
2023-10-08T12:24:52.311Z,3.13
2023-10-08T12:27:55.718Z,2.45
2023-10-08T12:30:59.102Z,1.40
2023-10-08T12:34:02.517Z,1.23
2023-10-08T12:37:08.706Z,1.27
2023-10-08T12:40:24.076Z,1.23
2023-10-08T12:43:30.291Z,1.77
2023-10-08T12:46:35.157Z,1.97
2023-10-08T12:49:40.429Z,1.23
2023-10-08T12:52:54.016Z,3.83
2023-10-08T12:55:59.349Z,1.27
2023-10-08T12:59:07.197Z,1.42
2023-10-08T13:02:12.195Z,2.13
2023-10-08T13:05:17.366Z,2.47
2023-10-08T13:08:22.008Z,2.70
2023-10-08T13:11:30.628Z,2.90
2023-10-08T13:14:36.948Z,3.47
2023-10-08T13:17:44.010Z,1.80
2023-10-08T13:20:49.460Z,2.00
2023-10-08T13:24:04.229Z,3.45
2023-10-08T13:27:08.446Z,5.03
2023-10-08T13:30:12.579Z,3.78
2023-10-08T13:33:16.869Z,3.77
2023-10-08T13:36:21.000Z,6.90
2023-10-08T13:39:24.411Z,3.50
2023-10-08T13:42:28.302Z,2.55
2023-10-08T13:45:33.971Z,4.30
2023-10-08T13:48:38.069Z,2.30
2023-10-08T13:51:41.836Z,5.60
2023-10-08T13:54:52.938Z,5.32
2023-10-08T13:57:58.806Z,2.35
2023-10-08T14:01:03.024Z,4.63
2023-10-08T14:04:07.800Z,4.53
2023-10-08T14:07:18.810Z,3.70
2023-10-08T14:10:30.908Z,4.47
2023-10-08T14:13:35.517Z,6.05
2023-10-08T14:16:43.437Z,3.30
2023-10-08T14:20:01.180Z,1.80
2023-10-08T14:23:05.496Z,2.43
2023-10-08T14:26:10.828Z,4.28
2023-10-08T14:29:18.413Z,5.22
2023-10-08T14:32:21.964Z,4.20
2023-10-08T14:35:43.899Z,3.77
2023-10-08T14:39:05.717Z,3.23
2023-10-08T14:42:27.874Z,5.22
2023-10-08T14:45:34.858Z,4.60
2023-10-08T14:48:38.694Z,3.97
2023-10-08T14:51:42.181Z,4.87
2023-10-08T14:54:46.687Z,2.87
2023-10-08T14:57:54.346Z,6.68
2023-10-08T15:00:57.743Z,5.47
2023-10-08T15:04:05.539Z,4.40
2023-10-08T15:07:19.226Z,3.33
2023-10-08T15:10:23.070Z,5.43
2023-10-08T15:13:26.537Z,3.55
2023-10-08T15:16:30.072Z,5.30
2023-10-08T15:19:33.512Z,5.25
2023-10-08T15:22:37.109Z,6.23
2023-10-08T15:25:41.037Z,3.10
2023-10-08T15:28:44.934Z,4.50
2023-10-08T15:31:50.766Z,4.28
2023-10-08T15:34:54.478Z,6.00
2023-10-08T15:37:57.904Z,6.27
2023-10-08T15:41:02.216Z,6.73
2023-10-08T15:44:06.669Z,6.88
2023-10-08T15:47:10.389Z,13.20
2023-10-08T15:50:14.249Z,12.23
2023-10-08T15:53:17.919Z,6.47
2023-10-08T15:56:21.293Z,11.77
2023-10-08T15:59:24.931Z,13.15
2023-10-08T16:02:28.653Z,10.57
2023-10-08T16:05:33.452Z,6.43
2023-10-08T16:08:37.134Z,4.17
2023-10-08T16:11:40.624Z,6.83
2023-10-08T16:14:44.118Z,5.70
2023-10-08T16:17:47.905Z,3.90
2023-10-08T16:20:52.145Z,3.38
2023-10-08T16:23:59.358Z,5.47
2023-10-08T16:27:03.391Z,6.57
2023-10-08T16:30:12.647Z,7.30
2023-10-08T16:33:16.738Z,9.10
2023-10-08T16:36:21.166Z,8.63
2023-10-08T16:39:27.247Z,6.23
2023-10-08T16:42:30.978Z,5.23
2023-10-08T16:45:34.383Z,6.18
2023-10-08T16:48:38.195Z,4.78
2023-10-08T16:51:41.989Z,4.45
2023-10-08T16:54:45.828Z,4.83
2023-10-08T16:57:50.791Z,5.03
2023-10-08T17:00:54.556Z,4.57
2023-10-08T17:03:58.193Z,5.57
2023-10-08T17:07:02.003Z,4.50
2023-10-08T17:10:07.762Z,4.70
2023-10-08T17:13:13.741Z,4.20
2023-10-08T17:16:18.407Z,2.50
2023-10-08T17:19:25.026Z,5.03
2023-10-08T17:22:29.483Z,3.58
2023-10-08T17:25:33.084Z,3.83
2023-10-08T17:28:37.026Z,3.63
2023-10-08T17:31:40.709Z,3.53
2023-10-08T17:34:45.617Z,4.30
2023-10-08T17:37:49.408Z,4.20
2023-10-08T17:40:52.990Z,8.10
2023-10-08T17:43:56.783Z,6.70
2023-10-08T17:47:00.172Z,6.63
2023-10-08T17:50:04.293Z,4.93
2023-10-08T17:53:09.308Z,6.53
2023-10-08T17:56:13.250Z,3.57
2023-10-08T17:59:21.699Z,5.87
2023-10-08T18:02:27.427Z,4.40
2023-10-08T18:05:33.074Z,3.50
2023-10-08T18:08:37.565Z,4.43
2023-10-08T18:11:43.506Z,9.23
2023-10-08T18:14:49.237Z,3.30
2023-10-08T18:17:56.215Z,3.00
2023-10-08T18:21:00.570Z,4.53
2023-10-08T18:24:04.676Z,3.70
2023-10-08T18:27:09.430Z,3.53
2023-10-08T18:30:13.927Z,3.77
2023-10-08T18:33:17.913Z,5.05
2023-10-08T18:36:22.799Z,4.20
2023-10-08T18:39:26.918Z,3.70
2023-10-08T18:42:31.777Z,4.87
2023-10-08T18:45:36.965Z,8.47
2023-10-08T18:48:42.156Z,3.55
2023-10-08T18:51:47.730Z,5.93
2023-10-08T18:54:51.484Z,6.55
2023-10-08T18:57:54.884Z,4.27
2023-10-08T19:00:58.670Z,6.37
2023-10-08T19:04:04.793Z,12.13
2023-10-08T19:07:12.517Z,6.32
2023-10-08T19:10:16.774Z,4.75
2023-10-08T19:13:20.662Z,3.40
2023-10-08T19:16:26.299Z,4.97
2023-10-08T19:19:32.340Z,3.45
2023-10-08T19:22:36.518Z,3.28
2023-10-08T19:25:41.128Z,3.47
2023-10-08T19:28:46.900Z,8.13
2023-10-08T19:31:51.123Z,4.77
2023-10-08T19:34:55.428Z,3.70
2023-10-08T19:38:00.100Z,3.08
2023-10-08T19:41:04.316Z,4.57
2023-10-08T19:44:08.060Z,3.97
2023-10-08T19:47:13.502Z,5.20
2023-10-08T19:50:21.167Z,5.40
2023-10-08T19:53:25.645Z,4.55
2023-10-08T19:56:29.408Z,5.22
2023-10-08T19:59:33.092Z,4.67
2023-10-08T20:02:37.435Z,3.70
2023-10-08T20:05:44.997Z,2.05
2023-10-08T20:08:50.154Z,5.15
2023-10-08T20:11:54.448Z,3.17
2023-10-08T20:14:58.630Z,5.10
2023-10-08T20:18:02.588Z,4.43
2023-10-08T20:21:06.990Z,5.53
2023-10-08T20:24:12.263Z,6.20
2023-10-08T20:27:16.462Z,4.10
2023-10-08T20:30:20.977Z,3.10
2023-10-08T20:33:25.138Z,4.63
2023-10-08T20:36:29.566Z,3.38
2023-10-08T20:39:33.789Z,6.60
2023-10-08T20:42:38.097Z,4.35
2023-10-08T20:45:42.336Z,5.13
2023-10-08T20:48:49.040Z,8.43
2023-10-08T20:51:53.296Z,5.93
2023-10-08T20:54:56.681Z,8.13
2023-10-08T20:58:00.177Z,6.00
2023-10-08T21:01:07.826Z,5.80
2023-10-08T21:04:11.792Z,6.77
2023-10-08T21:07:16.243Z,7.53
2023-10-08T21:10:20.312Z,6.35
2023-10-08T21:13:25.635Z,5.32
2023-10-08T21:16:31.285Z,7.63
2023-10-08T21:19:34.933Z,5.50
2023-10-08T21:22:42.183Z,4.43
2023-10-08T21:25:48.682Z,4.05
2023-10-08T21:28:54.200Z,6.90
2023-10-08T21:31:57.595Z,4.47
2023-10-08T21:35:01.349Z,4.63
2023-10-08T21:38:05.453Z,2.22
2023-10-08T21:41:09.500Z,3.65
2023-10-08T21:44:13.854Z,4.43
2023-10-08T21:47:17.201Z,4.17
2023-10-08T21:50:22.031Z,9.37
2023-10-08T21:53:28.407Z,7.82
2023-10-08T21:56:32.796Z,8.15
2023-10-08T21:59:36.168Z,14.85
2023-10-08T22:02:47.305Z,14.80
2023-10-08T22:05:50.996Z,5.77
2023-10-08T22:08:54.427Z,4.30
2023-10-08T22:11:59.542Z,6.28
2023-10-08T22:15:17.293Z,3.22
2023-10-08T22:18:29.086Z,5.17
2023-10-08T22:21:36.104Z,3.80
2023-10-08T22:24:42.796Z,2.50
2023-10-08T22:27:51.037Z,4.35
2023-10-08T22:30:59.457Z,5.30
2023-10-08T22:34:07.760Z,4.00
2023-10-08T22:37:20.559Z,3.70
2023-10-08T22:40:26.664Z,5.03
2023-10-08T22:43:37.073Z,6.03
2023-10-08T22:46:44.744Z,5.90
2023-10-08T22:49:55.055Z,4.77
2023-10-08T22:52:58.791Z,5.80
2023-10-08T22:56:02.443Z,6.45
2023-10-08T22:59:09.104Z,5.13
2023-10-08T23:02:14.091Z,14.02
2023-10-08T23:05:17.604Z,10.47
2023-10-08T23:08:24.249Z,5.97
2023-10-08T23:11:27.846Z,6.80
2023-10-08T23:14:32.825Z,6.32
2023-10-08T23:17:37.517Z,4.40
2023-10-08T23:20:45.274Z,4.10
2023-10-08T23:23:49.094Z,4.73
2023-10-08T23:26:52.658Z,5.13
2023-10-08T23:29:56.111Z,4.50
2023-10-08T23:33:00.257Z,6.82
2023-10-08T23:36:09.663Z,3.47
2023-10-08T23:39:16.321Z,8.23
2023-10-08T23:42:33.247Z,3.47
2023-10-08T23:45:42.367Z,5.80
2023-10-08T23:48:54.929Z,3.88
2023-10-08T23:52:01.720Z,4.50
2023-10-08T23:55:07.017Z,4.80
2023-10-08T23:58:18.217Z,5.88
